Time;durP1;ratioP1;P1;durP2;ratioP2;P2;SDS_P1;SDS_P2;PMS_P1;PMS_P2;Temp;Humidity;BMP_temperature;BMP_pressure;BME280_temperature;BME280_humidity;BME280_pressure;Samples;Min_cycle;Max_cycle;Signal;HPM_P1;HPM_P2
2021/11/04 00:01:48;;;;;;;;;;;7.80;99.90;;;;;;5033715;28;19909;-78
2021/11/04 00:04:14;;;;;;;;;;;8.00;99.90;;;;;;5033652;28;20322;-78
2021/11/04 00:06:40;;;;;;;;;;;8.00;99.90;;;;;;5033368;28;19905;-79
2021/11/04 00:09:05;;;;;;;;;;;7.90;99.90;;;;;;5032031;28;20381;-79
2021/11/04 00:11:31;;;;;;;;;;;7.80;99.90;;;;;;5048409;28;19916;-79
2021/11/04 00:13:56;;;;;;;;;;;7.80;99.90;;;;;;5032004;28;19983;-77
2021/11/04 00:16:22;;;;;;;;;;;7.70;99.90;;;;;;5033593;28;19905;-79
2021/11/04 00:18:48;;;;;;;;;;;7.90;99.90;;;;;;5033544;28;19905;-80
2021/11/04 00:21:13;;;;;;;;;;;8.10;99.90;;;;;;5033194;28;19909;-79
2021/11/04 00:23:39;;;;;;;;;;;8.10;99.90;;;;;;5033238;28;19912;-78
2021/11/04 00:26:05;;;;;;;;;;;8.00;99.90;;;;;;5033552;28;19909;-79
2021/11/04 00:28:30;;;;;;;;;;;7.80;99.90;;;;;;5036552;28;20008;-80
2021/11/04 00:30:56;;;;;;;;;;;7.80;99.90;;;;;;5036939;28;19905;-80
2021/11/04 00:33:21;;;;;;;;;;;7.90;99.90;;;;;;5035518;28;20451;-79
2021/11/04 00:35:47;;;;;;;;;;;7.80;99.90;;;;;;5035519;28;19911;-79
2021/11/04 00:38:13;;;;;;;;;;;7.90;99.90;;;;;;5036636;28;19995;-79
2021/11/04 00:40:38;;;;;;;;;;;7.90;99.90;;;;;;5036703;28;19916;-79
2021/11/04 00:43:04;;;;;;;;;;;8.00;99.90;;;;;;5036794;28;19905;-80
2021/11/04 00:45:30;;;;;;;;;;;8.00;99.90;;;;;;5035296;28;20395;-79
2021/11/04 00:47:55;;;;;;;;;;;7.90;99.90;;;;;;5036848;28;19954;-78
2021/11/04 00:50:22;;;;;;;;;;;7.80;99.90;;;;;;5036488;28;20365;-78
2021/11/04 00:52:48;;;;;;;;;;;7.80;99.90;;;;;;5035146;28;20318;-80
2021/11/04 00:55:14;;;;;;;;;;;7.70;99.90;;;;;;5036466;28;20006;-79
2021/11/04 00:57:40;;;;;;;;;;;7.80;99.90;;;;;;5036353;28;19905;-79
2021/11/04 01:00:08;;;;;;;;;;;7.90;99.90;;;;;;5036362;28;20055;-80
2021/11/04 01:02:33;;;;;;;;;;;7.90;99.90;;;;;;5034909;28;19905;-79
2021/11/04 01:04:59;;;;;;;;;;;8.00;99.90;;;;;;5036294;28;20384;-79
2021/11/04 01:07:24;;;;;;;;;;;8.20;99.90;;;;;;5036250;28;19905;-80
2021/11/04 01:09:51;;;;;;;;;;;8.30;99.90;;;;;;5034385;28;19913;-79
2021/11/04 01:12:17;;;;;;;;;;;8.10;99.90;;;;;;5036209;28;19905;-79
2021/11/04 01:14:43;;;;;;;;;;;8.00;99.90;;;;;;5036005;28;19905;-79
2021/11/04 01:17:09;;;;;;;;;;;8.00;99.90;;;;;;5034707;28;19905;-79
2021/11/04 01:19:34;;;;;;;;;;;8.00;99.90;;;;;;5035930;28;19905;-78
2021/11/04 01:22:00;;;;;;;;;;;7.90;99.90;;;;;;5035841;28;19944;-80
2021/11/04 01:24:26;;;;;;;;;;;8.10;99.90;;;;;;5035846;28;19905;-79
2021/11/04 01:26:52;;;;;;;;;;;8.30;99.90;;;;;;5034507;28;19912;-79
2021/11/04 01:29:17;;;;;;;;;;;8.50;99.90;;;;;;5035762;28;19905;-78
2021/11/04 01:31:43;;;;;;;;;;;8.70;99.90;;;;;;5036016;28;19928;-79
2021/11/04 01:34:08;;;;;;;;;;;8.60;99.90;;;;;;5035683;28;20258;-79
2021/11/04 01:36:34;;;;;;;;;;;8.70;99.90;;;;;;5035601;28;19905;-80
2021/11/04 01:39:00;;;;;;;;;;;8.80;99.90;;;;;;5033585;28;19992;-79
2021/11/04 01:41:25;;;;;;;;;;;8.80;99.90;;;;;;5050788;28;20008;-78
2021/11/04 01:43:51;;;;;;;;;;;8.70;99.90;;;;;;5035485;28;19913;-79
2021/11/04 01:46:20;;;;;;;;;;;8.70;99.90;;;;;;5035449;28;19963;-79
2021/11/04 01:48:46;;;;;;;;;;;8.90;99.90;;;;;;5035386;28;19909;-78
2021/11/04 01:51:12;;;;;;;;;;;8.90;99.90;;;;;;5035488;28;19935;-79
2021/11/04 01:53:38;;;;;;;;;;;8.90;99.90;;;;;;5035364;28;19955;-81
2021/11/04 01:56:03;;;;;;;;;;;8.90;99.90;;;;;;5035194;28;19904;-78
2021/11/04 01:58:29;;;;;;;;;;;8.90;99.90;;;;;;5035185;28;19905;-79
2021/11/04 02:00:55;;;;;;;;;;;8.90;99.90;;;;;;5035198;28;20343;-80
2021/11/04 02:03:39;;;;;;;;;;;9.00;99.90;;;;;;5035198;28;19909;-78
2021/11/04 02:06:24;;;;;;;;;;;9.00;99.90;;;;;;5035053;28;19954;-78
2021/11/04 02:09:01;;;;;;;;;;;9.00;99.90;;;;;;5035129;28;19905;-80
2021/11/04 02:11:37;;;;;;;;;;;9.10;99.90;;;;;;5034816;28;19917;-79
2021/11/04 02:14:11;;;;;;;;;;;9.10;99.90;;;;;;5034863;28;19912;-78
2021/11/04 02:16:37;;;;;;;;;;;9.10;99.90;;;;;;5034812;28;20262;-80
2021/11/04 02:19:16;;;;;;;;;;;9.20;99.90;;;;;;5033573;28;19905;-80
2021/11/04 02:21:47;;;;;;;;;;;9.20;99.90;;;;;;5034757;28;19909;-79
2021/11/04 02:24:24;;;;;;;;;;;9.10;99.90;;;;;;5035204;28;19905;-79
2021/11/04 02:26:50;;;;;;;;;;;9.10;99.90;;;;;;5034801;28;19913;-78
2021/11/04 02:29:16;;;;;;;;;;;9.10;99.90;;;;;;5033371;28;19947;-79
2021/11/04 02:31:42;;;;;;;;;;;9.00;99.90;;;;;;5034603;28;19972;-79
2021/11/04 02:34:08;;;;;;;;;;;9.20;99.90;;;;;;5034527;28;19912;-79
2021/11/04 02:36:33;;;;;;;;;;;9.20;99.90;;;;;;5034520;28;19905;-79
2021/11/04 02:38:59;;;;;;;;;;;9.30;99.90;;;;;;5034362;28;19905;-79
2021/11/04 02:41:25;;;;;;;;;;;9.30;99.90;;;;;;5034366;28;19912;-79
2021/11/04 02:43:51;;;;;;;;;;;9.20;99.90;;;;;;5034366;28;19905;-79
2021/11/04 02:46:17;;;;;;;;;;;9.30;99.90;;;;;;5034303;28;20420;-79
2021/11/04 02:48:42;;;;;;;;;;;9.30;99.90;;;;;;5034267;28;20281;-78
2021/11/04 02:51:08;;;;;;;;;;;9.30;99.90;;;;;;5033749;28;19955;-79
2021/11/04 02:53:34;;;;;;;;;;;9.40;99.90;;;;;;5034342;28;19919;-79
2021/11/04 02:56:00;;;;;;;;;;;9.30;99.90;;;;;;5034273;28;20340;-80
2021/11/04 02:58:26;;;;;;;;;;;9.30;99.90;;;;;;5034064;28;20328;-79
2021/11/04 03:00:54;;;;;;;;;;;9.30;99.90;;;;;;5034440;28;19909;-79
2021/11/04 03:03:20;;;;;;;;;;;9.40;99.90;;;;;;5049360;28;20349;-79
2021/11/04 03:05:46;;;;;;;;;;;9.50;99.90;;;;;;5034204;28;19909;-79
2021/11/04 03:08:11;;;;;;;;;;;9.50;99.90;;;;;;5034078;28;19905;-79
2021/11/04 03:10:37;;;;;;;;;;;9.50;99.90;;;;;;5033935;28;20262;-79
2021/11/04 03:13:03;;;;;;;;;;;9.50;99.90;;;;;;5032629;28;20006;-79
2021/11/04 03:15:30;;;;;;;;;;;9.60;99.90;;;;;;5033958;28;20018;-79
2021/11/04 03:17:56;;;;;;;;;;;9.60;99.90;;;;;;5033943;28;19909;-79
2021/11/04 03:20:22;;;;;;;;;;;9.40;99.90;;;;;;5033722;28;19988;-79
2021/11/04 03:22:48;;;;;;;;;;;9.30;99.90;;;;;;5034123;28;20380;-79
2021/11/04 03:25:17;;;;;;;;;;;9.10;99.90;;;;;;5033744;28;19948;-79
2021/11/04 03:27:44;;;;;;;;;;;9.10;99.90;;;;;;5032441;28;20003;-79
2021/11/04 03:30:11;;;;;;;;;;;8.90;99.90;;;;;;5033672;28;20301;-79
2021/11/04 03:32:37;;;;;;;;;;;8.70;99.90;;;;;;5033976;28;19905;-79
2021/11/04 03:35:03;;;;;;;;;;;8.50;99.90;;;;;;5033897;28;19905;-78
2021/11/04 03:37:30;;;;;;;;;;;8.30;99.90;;;;;;5033613;28;19995;-79
2021/11/04 03:39:56;;;;;;;;;;;8.30;99.90;;;;;;5033355;28;19932;-78
2021/11/04 03:42:22;;;;;;;;;;;8.30;99.90;;;;;;5033388;28;19909;-80
2021/11/04 03:44:48;;;;;;;;;;;8.60;99.90;;;;;;5032108;28;19905;-79
2021/11/04 03:47:16;;;;;;;;;;;8.70;99.90;;;;;;5033570;28;19905;-78
2021/11/04 03:49:42;;;;;;;;;;;9.00;99.90;;;;;;5033462;28;19921;-78
2021/11/04 03:52:08;;;;;;;;;;;9.10;99.90;;;;;;5032074;28;19905;-78
2021/11/04 03:54:34;;;;;;;;;;;9.10;99.90;;;;;;5033794;28;19912;-80
2021/11/04 03:57:00;;;;;;;;;;;9.10;99.90;;;;;;5033288;28;19941;-80
2021/11/04 03:59:26;;;;;;;;;;;9.10;99.90;;;;;;5031979;28;20339;-79
2021/11/04 04:01:52;;;;;;;;;;;9.10;99.90;;;;;;5034158;28;19913;-79
2021/11/04 04:04:18;;;;;;;;;;;9.10;99.90;;;;;;5037230;28;19958;-79
2021/11/04 04:06:43;;;;;;;;;;;9.10;99.90;;;;;;5035891;28;19955;-79
2021/11/04 04:09:09;;;;;;;;;;;9.00;99.90;;;;;;5035834;28;19905;-79
2021/11/04 04:11:35;;;;;;;;;;;9.00;99.90;;;;;;5036765;28;19931;-78
2021/11/04 04:14:01;;;;;;;;;;;9.00;99.90;;;;;;5037155;28;19995;-80
2021/11/04 04:16:26;;;;;;;;;;;8.80;99.90;;;;;;5037158;28;19912;-80
2021/11/04 04:18:52;;;;;;;;;;;8.50;99.90;;;;;;5036950;28;19958;-79
2021/11/04 04:21:18;;;;;;;;;;;8.40;99.90;;;;;;5052216;28;19931;-78
2021/11/04 04:23:44;;;;;;;;;;;8.40;99.90;;;;;;5036999;28;19905;-78
2021/11/04 04:26:10;;;;;;;;;;;8.40;99.90;;;;;;5036867;28;19920;-79
2021/11/04 04:28:36;;;;;;;;;;;8.30;99.90;;;;;;5036718;28;19916;-77
2021/11/04 04:31:01;;;;;;;;;;;8.30;99.90;;;;;;5036906;28;19959;-79
2021/11/04 04:33:27;;;;;;;;;;;8.30;99.90;;;;;;5051959;28;20281;-78
2021/11/04 04:35:55;;;;;;;;;;;8.10;99.90;;;;;;5036680;28;19905;-79
2021/11/04 04:38:21;;;;;;;;;;;8.00;99.90;;;;;;5036498;28;20378;-80
2021/11/04 04:40:46;;;;;;;;;;;8.00;99.90;;;;;;5036474;28;19909;-79
2021/11/04 04:43:12;;;;;;;;;;;8.10;99.90;;;;;;5036537;28;19909;-79
2021/11/04 04:45:37;;;;;;;;;;;8.10;99.90;;;;;;5036517;28;19912;-78
2021/11/04 04:48:03;;;;;;;;;;;8.10;99.90;;;;;;5035096;28;19905;-78
2021/11/04 04:50:29;;;;;;;;;;;8.00;99.90;;;;;;5036338;28;19905;-80
2021/11/04 04:52:54;;;;;;;;;;;7.90;99.90;;;;;;5051611;28;19984;-80
2021/11/04 04:55:20;;;;;;;;;;;7.80;99.90;;;;;;5036380;28;19968;-79
2021/11/04 04:57:46;;;;;;;;;;;7.70;99.90;;;;;;5036220;28;19942;-79
2021/11/04 05:00:12;;;;;;;;;;;7.70;99.90;;;;;;5036144;28;19905;-77
2021/11/04 05:02:38;;;;;;;;;;;7.90;99.90;;;;;;5036525;28;19905;-79
2021/11/04 05:05:04;;;;;;;;;;;7.80;99.90;;;;;;5036227;28;19905;-79
2021/11/04 05:07:30;;;;;;;;;;;7.80;99.90;;;;;;5035982;28;19942;-78
2021/11/04 05:09:55;;;;;;;;;;;7.80;99.90;;;;;;5051173;28;19974;-78
2021/11/04 05:12:21;;;;;;;;;;;7.80;99.90;;;;;;5036170;28;19905;-79
2021/11/04 05:14:48;;;;;;;;;;;7.70;99.90;;;;;;5033635;28;19921;-79
2021/11/04 05:17:14;;;;;;;;;;;7.90;99.90;;;;;;5036016;28;19992;-78
2021/11/04 05:19:40;;;;;;;;;;;7.80;99.90;;;;;;5035839;28;20288;-79
2021/11/04 05:22:05;;;;;;;;;;;7.60;99.90;;;;;;5035712;28;19913;-79
2021/11/04 05:24:34;;;;;;;;;;;7.60;99.90;;;;;;5035867;28;19951;-79
2021/11/04 05:27:04;;;;;;;;;;;7.70;99.90;;;;;;5050958;28;20356;-80
2021/11/04 05:29:30;;;;;;;;;;;7.70;99.90;;;;;;5035698;28;19905;-79
2021/11/04 05:32:00;;;;;;;;;;;7.60;99.90;;;;;;5035570;28;19943;-79
2021/11/04 05:34:25;;;;;;;;;;;7.50;99.90;;;;;;5035712;28;20258;-80
2021/11/04 05:36:51;;;;;;;;;;;7.50;99.90;;;;;;5035465;28;19904;-79
2021/11/04 05:39:17;;;;;;;;;;;7.70;99.90;;;;;;5035410;28;19905;-79
2021/11/04 05:41:42;;;;;;;;;;;8.00;99.90;;;;;;5035431;28;19909;-78
2021/11/04 05:44:08;;;;;;;;;;;8.10;99.90;;;;;;5035595;28;19955;-80
2021/11/04 05:46:34;;;;;;;;;;;8.20;99.90;;;;;;5050687;28;19912;-80
2021/11/04 05:48:59;;;;;;;;;;;8.10;99.90;;;;;;5035284;28;19911;-78
2021/11/04 05:51:25;;;;;;;;;;;8.20;99.90;;;;;;5033948;28;19936;-78
2021/11/04 05:53:50;;;;;;;;;;;8.10;99.90;;;;;;5035326;28;20384;-79
2021/11/04 05:56:16;;;;;;;;;;;7.90;99.90;;;;;;5035149;28;19905;-78
2021/11/04 05:58:42;;;;;;;;;;;7.70;99.90;;;;;;5035356;28;19905;-79
2021/11/04 06:01:07;;;;;;;;;;;7.60;99.90;;;;;;5035183;28;20388;-79
2021/11/04 06:03:33;;;;;;;;;;;7.60;99.90;;;;;;5035047;28;19905;-78
2021/11/04 06:05:59;;;;;;;;;;;7.60;99.90;;;;;;5034990;28;20277;-78
2021/11/04 06:08:24;;;;;;;;;;;7.60;99.90;;;;;;5035119;28;19905;-78
2021/11/04 06:10:50;;;;;;;;;;;7.60;99.90;;;;;;5034808;28;19924;-79
2021/11/04 06:13:15;;;;;;;;;;;7.50;99.90;;;;;;5033560;28;20011;-80
2021/11/04 06:15:41;;;;;;;;;;;7.50;99.90;;;;;;5034800;28;19909;-79
2021/11/04 06:18:06;;;;;;;;;;;7.50;99.90;;;;;;5034741;28;19936;-78
2021/11/04 06:20:32;;;;;;;;;;;7.50;99.90;;;;;;5033371;28;19913;-78
2021/11/04 06:22:58;;;;;;;;;;;7.50;99.90;;;;;;5034633;28;19905;-80
2021/11/04 06:25:24;;;;;;;;;;;7.50;99.90;;;;;;5034646;28;19911;-79
2021/11/04 06:27:49;;;;;;;;;;;7.40;99.90;;;;;;5034568;28;19905;-78
2021/11/04 06:30:15;;;;;;;;;;;7.40;99.90;;;;;;5034458;28;19905;-79
2021/11/04 06:32:41;;;;;;;;;;;7.50;99.90;;;;;;5034816;28;19984;-79
2021/11/04 06:35:08;;;;;;;;;;;7.60;99.90;;;;;;5034432;28;20415;-80
2021/11/04 06:37:34;;;;;;;;;;;7.60;99.90;;;;;;5034390;28;20004;-78
2021/11/04 06:39:59;;;;;;;;;;;7.40;99.90;;;;;;5033048;28;19940;-78
2021/11/04 06:42:25;;;;;;;;;;;7.40;99.90;;;;;;5034603;28;20530;-79
2021/11/04 06:44:51;;;;;;;;;;;7.60;99.90;;;;;;5032971;28;19995;-79
2021/11/04 06:47:21;;;;;;;;;;;7.40;99.90;;;;;;5034257;28;20354;-78
2021/11/04 06:49:49;;;;;;;;;;;7.50;99.90;;;;;;5034212;28;19905;-79
2021/11/04 06:52:18;;;;;;;;;;;7.50;99.90;;;;;;5034247;28;19905;-79
2021/11/04 06:54:47;;;;;;;;;;;7.60;99.90;;;;;;5034308;28;19951;-79
2021/11/04 06:57:16;;;;;;;;;;;7.70;99.90;;;;;;5034061;28;19912;-79
2021/11/04 06:59:42;;;;;;;;;;;7.70;99.90;;;;;;5034228;28;19912;-79
2021/11/04 07:02:10;;;;;;;;;;;7.70;99.90;;;;;;5034061;28;19967;-79
2021/11/04 07:04:37;;;;;;;;;;;7.60;99.90;;;;;;5033975;28;19919;-78
2021/11/04 07:07:08;;;;;;;;;;;7.70;99.90;;;;;;5032575;28;19983;-78
2021/11/04 07:09:35;;;;;;;;;;;7.80;99.90;;;;;;5034090;28;19906;-80
2021/11/04 07:12:02;;;;;;;;;;;7.90;99.90;;;;;;5033852;28;20020;-80
2021/11/04 07:14:29;;;;;;;;;;;8.00;99.90;;;;;;5032474;28;19909;-79
2021/11/04 07:16:56;;;;;;;;;;;8.20;99.90;;;;;;5033838;28;19936;-78
2021/11/04 07:19:23;;;;;;;;;;;8.10;99.90;;;;;;5033715;28;19905;-80
2021/11/04 07:22:15;;;;;;;;;;;8.10;99.90;;;;;;5048949;28;20335;-79
2021/11/04 07:24:46;;;;;;;;;;;8.00;99.90;;;;;;5033214;28;19909;-78
2021/11/04 07:27:16;;;;;;;;;;;8.10;99.90;;;;;;5032345;28;19947;-77
2021/11/04 07:29:43;;;;;;;;;;;8.30;99.90;;;;;;5033717;28;20336;-80
2021/11/04 07:32:13;;;;;;;;;;;8.30;99.90;;;;;;5033565;28;20281;-78
2021/11/04 07:34:38;;;;;;;;;;;8.50;99.90;;;;;;5033484;28;19959;-79
2021/11/04 07:37:05;;;;;;;;;;;8.60;99.90;;;;;;5048242;28;20330;-80
2021/11/04 07:39:31;;;;;;;;;;;8.60;99.90;;;;;;5033440;28;19912;-80
2021/11/04 07:41:57;;;;;;;;;;;8.60;99.90;;;;;;5033434;28;19913;-78
2021/11/04 07:44:22;;;;;;;;;;;9.00;99.90;;;;;;5032240;28;19928;-79
2021/11/04 07:46:48;;;;;;;;;;;10.00;99.90;;;;;;5033718;28;19912;-79
2021/11/04 07:49:13;;;;;;;;;;;10.60;99.90;;;;;;5033483;28;19966;-81
2021/11/04 07:51:40;;;;;;;;;;;11.10;99.90;;;;;;5033438;28;19905;-81
2021/11/04 07:54:10;;;;;;;;;;;11.30;99.90;;;;;;5032117;28;20388;-79
2021/11/04 07:56:36;;;;;;;;;;;11.80;99.90;;;;;;5033556;28;19996;-80
2021/11/04 07:59:01;;;;;;;;;;;12.00;99.90;;;;;;5033405;28;19948;-81
2021/11/04 08:01:27;;;;;;;;;;;11.80;99.90;;;;;;5048561;28;20361;-80
2021/11/04 08:03:52;;;;;;;;;;;11.70;99.90;;;;;;5048647;28;19913;-79
2021/11/04 08:06:18;;;;;;;;;;;11.80;99.90;;;;;;5031995;28;19905;-78
2021/11/04 08:08:43;;;;;;;;;;;11.70;99.90;;;;;;5048582;28;19960;-78
2021/11/04 08:11:09;;;;;;;;;;;12.40;99.90;;;;;;5033017;28;20004;-79
2021/11/04 08:13:35;;;;;;;;;;;13.50;99.90;;;;;;5033524;28;19912;-80
2021/11/04 08:16:00;;;;;;;;;;;13.70;99.90;;;;;;5033185;28;19905;-81
2021/11/04 08:18:26;;;;;;;;;;;14.20;99.90;;;;;;5033165;28;19915;-80
2021/11/04 08:20:52;;;;;;;;;;;15.60;99.90;;;;;;5033117;28;19908;-80
2021/11/04 08:23:17;;;;;;;;;;;16.60;96.20;;;;;;5033149;28;20001;-80
2021/11/04 08:25:43;;;;;;;;;;;17.20;92.30;;;;;;5033261;28;19905;-80
2021/11/04 08:28:09;;;;;;;;;;;16.90;91.80;;;;;;5033062;28;19905;-79
2021/11/04 08:30:35;;;;;;;;;;;16.00;92.20;;;;;;5033065;28;19928;-80
2021/11/04 08:33:02;;;;;;;;;;;15.10;94.70;;;;;;5031779;28;20346;-81
2021/11/04 08:35:28;;;;;;;;;;;15.10;94.90;;;;;;5033065;28;20328;-79
2021/11/04 08:37:54;;;;;;;;;;;14.60;96.00;;;;;;5033026;28;19932;-80
2021/11/04 08:40:20;;;;;;;;;;;14.30;96.70;;;;;;5031505;28;19909;-79
2021/11/04 08:42:45;;;;;;;;;;;13.80;98.20;;;;;;5032917;28;19912;-80
2021/11/04 08:45:11;;;;;;;;;;;13.40;99.70;;;;;;5033327;28;19995;-79
2021/11/04 08:47:37;;;;;;;;;;;12.80;99.90;;;;;;5033052;28;20428;-80
2021/11/04 08:50:05;;;;;;;;;;;12.30;99.90;;;;;;5035412;28;19984;-79
2021/11/04 08:52:31;;;;;;;;;;;12.00;99.90;;;;;;5051663;28;20000;-79
2021/11/04 08:54:56;;;;;;;;;;;11.80;99.90;;;;;;5035036;28;19955;-80
2021/11/04 08:57:22;;;;;;;;;;;11.60;99.90;;;;;;5036082;28;20268;-79
2021/11/04 08:59:48;;;;;;;;;;;11.60;99.90;;;;;;5036329;28;20400;-80
2021/11/04 09:02:14;;;;;;;;;;;11.40;99.90;;;;;;5035027;28;20016;-79
2021/11/04 09:04:42;;;;;;;;;;;11.40;99.90;;;;;;5036154;28;19912;-79
2021/11/04 09:07:09;;;;;;;;;;;11.40;99.90;;;;;;5036082;28;19912;-79
2021/11/04 09:09:34;;;;;;;;;;;11.60;99.90;;;;;;5035995;28;19912;-79
2021/11/04 09:12:00;;;;;;;;;;;11.70;99.90;;;;;;5035872;28;19917;-79
2021/11/04 09:14:25;;;;;;;;;;;11.90;99.90;;;;;;5035912;28;20266;-79
2021/11/04 09:16:51;;;;;;;;;;;12.10;99.90;;;;;;5036004;28;19911;-80
2021/11/04 09:19:17;;;;;;;;;;;12.00;99.90;;;;;;5035840;28;19927;-79
2021/11/04 09:21:42;;;;;;;;;;;11.90;99.90;;;;;;5034515;28;19909;-80
2021/11/04 09:24:08;;;;;;;;;;;11.90;99.90;;;;;;5035842;28;19984;-79
2021/11/04 09:26:37;;;;;;;;;;;11.80;99.90;;;;;;5034373;28;19905;-79
2021/11/04 09:29:03;;;;;;;;;;;11.70;99.90;;;;;;5009198;28;19917;-78
2021/11/04 09:31:29;;;;;;;;;;;11.90;99.90;;;;;;5035339;28;19911;-79
2021/11/04 09:33:57;;;;;;;;;;;12.10;99.90;;;;;;5035233;28;19999;-79
2021/11/04 09:36:25;;;;;;;;;;;12.20;99.90;;;;;;5033692;28;19912;-80
2021/11/04 09:38:52;;;;;;;;;;;12.20;99.90;;;;;;5033860;28;19952;-80
2021/11/04 09:41:19;;;;;;;;;;;12.30;99.90;;;;;;5033548;28;19908;-80
2021/11/04 09:43:45;;;;;;;;;;;14.20;99.90;;;;;;5035058;28;19912;-80
2021/11/04 09:46:11;;;;;;;;;;;16.90;97.80;;;;;;5035148;28;19905;-80
2021/11/04 09:48:37;;;;;;;;;;;19.10;90.90;;;;;;5049866;28;19912;-81
2021/11/04 09:51:03;;;;;;;;;;;20.30;85.50;;;;;;5034704;28;19905;-81
2021/11/04 09:53:30;;;;;;;;;;;21.40;77.50;;;;;;5035051;28;19911;-80
2021/11/04 09:55:57;;;;;;;;;;;23.40;70.30;;;;;;5034943;28;19905;-82
2021/11/04 09:58:22;;;;;;;;;;;24.20;65.70;;;;;;5034444;28;19905;-81
2021/11/04 10:00:48;;;;;;;;;;;22.10;66.30;;;;;;5034442;28;20361;-80
2021/11/04 10:03:15;;;;;;;;;;;20.20;70.50;;;;;;5034639;28;19909;-81
2021/11/04 10:05:44;;;;;;;;;;;18.40;74.00;;;;;;5034764;28;19936;-81
2021/11/04 10:08:13;;;;;;;;;;;17.30;79.50;;;;;;5032889;28;19913;-80
2021/11/04 10:10:39;;;;;;;;;;;16.50;81.60;;;;;;5034381;28;19921;-80
2021/11/04 10:13:06;;;;;;;;;;;16.00;85.00;;;;;;5034496;28;19905;-80
2021/11/04 10:15:32;;;;;;;;;;;15.90;87.60;;;;;;5034316;28;19905;-80
2021/11/04 10:18:13;;;;;;;;;;;17.10;86.30;;;;;;5032822;28;19905;-81
2021/11/04 10:20:40;;;;;;;;;;;18.90;81.70;;;;;;5032860;28;19960;-81
2021/11/04 10:23:07;;;;;;;;;;;21.80;73.00;;;;;;5034481;28;19905;-82
2021/11/04 10:25:33;;;;;;;;;;;24.00;67.50;;;;;;5034404;28;19912;-81
2021/11/04 10:28:00;;;;;;;;;;;26.20;60.00;;;;;;5032251;28;19959;-82
2021/11/04 10:30:37;;;;;;;;;;;27.00;58.80;;;;;;4993065;28;19962;-81
2021/11/04 10:33:22;;;;;;;;;;;27.60;55.60;;;;;;5032770;28;19905;-81
2021/11/04 10:36:06;;;;;;;;;;;28.60;53.80;;;;;;5034307;28;19905;-82
2021/11/04 10:38:35;;;;;;;;;;;29.10;52.20;;;;;;5029147;28;19905;-82
2021/11/04 10:41:05;;;;;;;;;;;29.40;50.80;;;;;;5014319;28;19913;-81
2021/11/04 10:43:30;;;;;;;;;;;29.80;49.60;;;;;;5014270;28;19913;-82
2021/11/04 10:46:04;;;;;;;;;;;30.10;48.60;;;;;;5014220;28;19910;-82
2021/11/04 10:48:40;;;;;;;;;;;30.50;49.30;;;;;;5026451;28;19905;-82
2021/11/04 10:51:06;;;;;;;;;;;29.60;49.70;;;;;;5033980;28;20000;-81
2021/11/04 10:53:32;;;;;;;;;;;30.00;49.30;;;;;;5033913;28;19998;-82
2021/11/04 10:56:16;;;;;;;;;;;31.10;47.40;;;;;;5033816;28;19953;-80
2021/11/04 10:58:42;;;;;;;;;;;28.40;50.20;;;;;;5031506;28;20278;-80
2021/11/04 11:01:22;;;;;;;;;;;25.50;53.00;;;;;;5033618;28;20369;-80
2021/11/04 11:03:51;;;;;;;;;;;27.60;51.80;;;;;;5034097;28;19905;-82
2021/11/04 11:06:16;;;;;;;;;;;28.70;51.40;;;;;;5034085;28;19909;-81
2021/11/04 11:08:43;;;;;;;;;;;30.00;49.00;;;;;;5034024;28;19912;-81
2021/11/04 11:11:09;;;;;;;;;;;30.10;48.00;;;;;;5033076;28;20392;-82
2021/11/04 11:13:34;;;;;;;;;;;32.00;46.40;;;;;;5033754;28;19905;-81
2021/11/04 11:16:02;;;;;;;;;;;33.10;45.20;;;;;;5033907;28;19912;-81
2021/11/04 11:18:29;;;;;;;;;;;34.80;44.20;;;;;;5033838;28;19959;-81
2021/11/04 11:20:55;;;;;;;;;;;35.60;41.70;;;;;;5033920;28;19905;-81
2021/11/04 11:23:23;;;;;;;;;;;35.80;42.20;;;;;;5033778;28;20015;-81
2021/11/04 11:25:50;;;;;;;;;;;33.40;41.30;;;;;;5032518;28;19913;-81
2021/11/04 11:28:16;;;;;;;;;;;34.20;42.70;;;;;;5032462;28;19905;-82
2021/11/04 11:31:02;;;;;;;;;;;34.00;41.10;;;;;;5032436;28;19909;-82
2021/11/04 11:33:27;;;;;;;;;;;35.10;40.60;;;;;;5032556;28;19956;-80
2021/11/04 11:36:13;;;;;;;;;;;33.10;43.00;;;;;;5033783;28;19905;-81
2021/11/04 11:39:04;;;;;;;;;;;35.50;42.50;;;;;;5032335;28;19931;-81
2021/11/04 11:41:33;;;;;;;;;;;35.40;41.90;;;;;;5033680;28;19905;-82
2021/11/04 11:44:02;;;;;;;;;;;31.80;42.00;;;;;;5033588;28;19905;-81
2021/11/04 11:46:28;;;;;;;;;;;28.80;46.20;;;;;;5032261;28;19906;-80
2021/11/04 11:49:24;;;;;;;;;;;25.90;51.60;;;;;;5033447;28;19905;-81
2021/11/04 11:51:58;;;;;;;;;;;23.30;54.60;;;;;;5023539;28;20350;-81
2021/11/04 11:54:42;;;;;;;;;;;21.90;58.90;;;;;;5033738;28;19905;-80
2021/11/04 11:57:12;;;;;;;;;;;20.50;63.00;;;;;;5032044;28;19928;-79
2021/11/04 11:59:59;;;;;;;;;;;20.00;65.20;;;;;;5033311;28;19905;-80
2021/11/04 12:02:34;;;;;;;;;;;19.40;67.40;;;;;;5033254;28;19983;-79
2021/11/04 12:05:18;;;;;;;;;;;18.80;68.90;;;;;;5033444;28;19912;-80
2021/11/04 12:07:44;;;;;;;;;;;18.10;70.30;;;;;;5031938;28;19905;-79
2021/11/04 12:10:28;;;;;;;;;;;17.70;71.80;;;;;;5031737;28;19913;-80
2021/11/04 12:12:54;;;;;;;;;;;17.20;74.90;;;;;;5033239;28;19909;-79
2021/11/04 12:15:19;;;;;;;;;;;22.20;67.40;;;;;;5033254;28;20320;-80
2021/11/04 12:18:03;;;;;;;;;;;29.20;54.40;;;;;;5033842;28;19905;-81
2021/11/04 12:20:29;;;;;;;;;;;33.10;47.00;;;;;;5033315;28;19905;-81
2021/11/04 12:22:54;;;;;;;;;;;35.20;44.10;;;;;;5032875;28;19971;-81
2021/11/04 12:25:21;;;;;;;;;;;29.80;46.10;;;;;;5035699;28;19955;-80
2021/11/04 12:27:47;;;;;;;;;;;25.70;52.20;;;;;;5036892;28;19913;-79
2021/11/04 12:30:15;;;;;;;;;;;21.80;57.50;;;;;;5035474;28;19905;-80
2021/11/04 12:32:41;;;;;;;;;;;19.60;61.30;;;;;;5036738;28;19909;-79
2021/11/04 12:35:07;;;;;;;;;;;18.40;63.50;;;;;;5035402;28;19909;-80
2021/11/04 12:37:33;;;;;;;;;;;17.80;67.10;;;;;;5036689;28;19905;-80
2021/11/04 12:40:00;;;;;;;;;;;17.60;67.10;;;;;;5036542;28;19909;-79
2021/11/04 12:42:25;;;;;;;;;;;17.20;70.60;;;;;;5035341;28;19912;-79
2021/11/04 12:44:51;;;;;;;;;;;17.00;71.80;;;;;;5036619;28;20305;-81
2021/11/04 12:47:17;;;;;;;;;;;17.00;72.50;;;;;;5036535;28;19959;-80
2021/11/04 12:49:43;;;;;;;;;;;16.80;72.00;;;;;;5036608;28;20320;-79
2021/11/04 12:52:11;;;;;;;;;;;16.90;73.20;;;;;;5035098;28;19996;-79
2021/11/04 12:54:38;;;;;;;;;;;17.00;72.10;;;;;;5036323;28;19909;-79
2021/11/04 12:57:08;;;;;;;;;;;17.00;71.00;;;;;;5034875;28;19905;-80
2021/11/04 12:59:33;;;;;;;;;;;17.00;73.10;;;;;;5034915;28;19905;-79
2021/11/04 13:02:09;;;;;;;;;;;16.80;73.70;;;;;;5036358;28;19927;-79
2021/11/04 13:04:38;;;;;;;;;;;17.00;74.30;;;;;;5036421;28;19912;-80
2021/11/04 13:07:05;;;;;;;;;;;17.00;74.30;;;;;;5034817;28;19905;-78
2021/11/04 13:09:40;;;;;;;;;;;16.90;74.70;;;;;;5035804;28;20377;-79
2021/11/04 13:12:07;;;;;;;;;;;16.90;74.80;;;;;;5034251;28;20416;-79
2021/11/04 13:14:48;;;;;;;;;;;16.70;76.80;;;;;;5034692;28;19932;-79
2021/11/04 13:17:14;;;;;;;;;;;18.20;74.00;;;;;;5035962;28;19911;-79
2021/11/04 13:19:52;;;;;;;;;;;18.90;70.30;;;;;;5036156;28;19909;-79
2021/11/04 13:22:18;;;;;;;;;;;18.50;72.00;;;;;;5036063;28;19905;-80
2021/11/04 13:24:43;;;;;;;;;;;17.40;74.60;;;;;;5035892;28;20262;-80
2021/11/04 13:27:12;;;;;;;;;;;16.30;78.00;;;;;;5035755;28;20380;-79
2021/11/04 13:29:51;;;;;;;;;;;15.70;80.60;;;;;;5035695;28;19909;-79
2021/11/04 13:32:17;;;;;;;;;;;15.40;80.70;;;;;;5035555;28;20029;-79
2021/11/04 13:34:43;;;;;;;;;;;15.40;82.40;;;;;;5034882;28;19947;-79
2021/11/04 13:37:13;;;;;;;;;;;15.60;81.30;;;;;;5034283;28;19905;-80
2021/11/04 13:39:39;;;;;;;;;;;15.60;81.50;;;;;;5035475;28;19932;-80
2021/11/04 13:42:05;;;;;;;;;;;15.50;84.50;;;;;;5035853;28;19905;-80
2021/11/04 13:44:32;;;;;;;;;;;15.30;85.40;;;;;;5034117;28;19905;-79
2021/11/04 13:46:58;;;;;;;;;;;16.30;82.90;;;;;;5035593;28;19905;-79
2021/11/04 13:49:24;;;;;;;;;;;18.80;75.20;;;;;;5034038;28;19911;-80
2021/11/04 13:51:54;;;;;;;;;;;18.40;73.80;;;;;;5035270;28;19916;-80
2021/11/04 13:54:20;;;;;;;;;;;22.70;67.90;;;;;;5035343;28;19912;-80
2021/11/04 13:56:47;;;;;;;;;;;24.20;59.80;;;;;;5035373;28;19909;-80
2021/11/04 13:59:34;;;;;;;;;;;23.00;61.80;;;;;;5035327;28;19937;-80
2021/11/04 14:02:07;;;;;;;;;;;21.10;64.60;;;;;;5033908;28;19913;-80
2021/11/04 14:04:33;;;;;;;;;;;23.20;64.50;;;;;;5035174;28;20263;-80
2021/11/04 14:06:59;;;;;;;;;;;26.40;58.00;;;;;;5035454;28;19911;-80
2021/11/04 14:09:32;;;;;;;;;;;28.80;53.80;;;;;;5035131;28;19905;-80
2021/11/04 14:12:09;;;;;;;;;;;29.60;52.10;;;;;;5034556;28;19967;-80
2021/11/04 14:14:42;;;;;;;;;;;30.00;50.30;;;;;;5033705;28;19905;-80
2021/11/04 14:17:09;;;;;;;;;;;29.50;49.10;;;;;;5034857;28;19959;-80
2021/11/04 14:19:34;;;;;;;;;;;29.70;48.00;;;;;;5034855;28;20313;-80
2021/11/04 14:22:00;;;;;;;;;;;29.10;47.70;;;;;;5034777;28;19905;-79
2021/11/04 14:24:26;;;;;;;;;;;29.50;47.70;;;;;;5034718;28;19945;-80
2021/11/04 14:26:51;;;;;;;;;;;29.10;47.30;;;;;;5033380;28;19950;-79